createdAt,value
2023-05-14T00:00:39.405Z,10.10
2023-05-14T00:05:36.888Z,10.00
2023-05-14T00:08:03.461Z,9.90
2023-05-14T00:10:30.005Z,9.90
2023-05-14T00:12:56.540Z,9.90
2023-05-14T00:15:23.079Z,9.80
2023-05-14T00:17:49.614Z,9.80
2023-05-14T00:20:16.186Z,9.70
2023-05-14T00:22:42.701Z,9.70
2023-05-14T00:25:09.671Z,9.70
2023-05-14T00:27:37.649Z,9.70
2023-05-14T00:30:04.913Z,9.70
2023-05-14T00:32:31.508Z,9.70
2023-05-14T00:34:58.090Z,9.70
2023-05-14T00:37:24.617Z,9.60
2023-05-14T00:39:51.194Z,9.60
2023-05-14T00:42:17.771Z,9.50
2023-05-14T00:44:44.234Z,9.50
2023-05-14T00:47:10.938Z,9.40
2023-05-14T00:49:39.845Z,9.40
2023-05-14T00:52:06.786Z,9.40
2023-05-14T00:54:33.494Z,9.30
2023-05-14T00:57:00.015Z,9.30
2023-05-14T00:59:26.603Z,9.30
2023-05-14T01:01:53.188Z,9.30
2023-05-14T01:04:19.800Z,9.30
2023-05-14T01:06:52.537Z,9.20
2023-05-14T01:09:25.249Z,9.20
2023-05-14T01:11:59.753Z,9.10
2023-05-14T01:14:32.407Z,9.10
2023-05-14T01:16:59.563Z,9.00
2023-05-14T01:19:32.164Z,9.10
2023-05-14T01:21:58.645Z,9.10
2023-05-14T01:24:25.185Z,9.10
2023-05-14T01:26:52.225Z,9.20
2023-05-14T01:29:21.348Z,9.20
2023-05-14T01:31:49.758Z,9.20
2023-05-14T01:34:19.202Z,9.20
2023-05-14T01:36:47.069Z,9.20
2023-05-14T01:39:15.093Z,9.20
2023-05-14T01:41:42.454Z,9.20
2023-05-14T01:44:09.381Z,9.10
2023-05-14T01:46:36.010Z,9.10
2023-05-14T01:49:02.570Z,9.00
2023-05-14T01:51:29.111Z,9.00
2023-05-14T01:53:55.618Z,8.90
2023-05-14T01:56:23.427Z,8.80
2023-05-14T01:58:49.940Z,8.80
2023-05-14T02:01:16.570Z,8.80
2023-05-14T02:03:43.212Z,8.70
2023-05-14T02:06:09.733Z,8.70
2023-05-14T02:08:36.271Z,8.70
2023-05-14T02:11:02.758Z,8.60
2023-05-14T02:13:29.263Z,8.60
2023-05-14T02:15:55.837Z,8.60
2023-05-14T02:18:22.512Z,8.50
2023-05-14T02:20:49.062Z,8.50
2023-05-14T02:23:15.585Z,8.50
2023-05-14T02:25:42.155Z,8.40
2023-05-14T02:28:11.011Z,8.40
2023-05-14T02:30:37.480Z,8.40
2023-05-14T02:33:04.088Z,8.40
2023-05-14T02:35:30.780Z,8.40
2023-05-14T02:37:57.388Z,8.40
2023-05-14T02:40:24.264Z,8.40
2023-05-14T02:42:51.004Z,8.40
2023-05-14T02:45:17.552Z,8.40
2023-05-14T02:47:44.211Z,8.30
2023-05-14T02:50:11.152Z,8.20
2023-05-14T02:52:37.683Z,8.10
2023-05-14T02:55:04.724Z,8.10
2023-05-14T02:57:31.285Z,8.10
2023-05-14T02:59:57.769Z,8.00
2023-05-14T03:02:24.928Z,8.00
2023-05-14T03:04:51.859Z,7.90
2023-05-14T03:07:18.323Z,7.90
2023-05-14T03:09:45.169Z,7.80
2023-05-14T03:12:12.661Z,7.80
2023-05-14T03:14:39.193Z,7.80
2023-05-14T03:17:05.841Z,7.70
2023-05-14T03:19:32.338Z,7.70
2023-05-14T03:21:58.960Z,7.80
2023-05-14T03:24:25.528Z,7.70
2023-05-14T03:26:52.076Z,7.70
2023-05-14T03:29:18.548Z,7.60
2023-05-14T03:31:45.159Z,7.60
2023-05-14T03:34:11.696Z,7.70
2023-05-14T03:36:39.627Z,7.60
2023-05-14T03:39:06.950Z,7.70
2023-05-14T03:41:34.939Z,7.70
2023-05-14T03:44:01.590Z,7.70
2023-05-14T03:46:28.098Z,7.70
2023-05-14T03:48:54.657Z,7.60
2023-05-14T03:51:21.272Z,7.60
2023-05-14T03:53:47.784Z,7.60
2023-05-14T03:56:14.379Z,7.50
2023-05-14T03:58:40.945Z,7.50
2023-05-14T04:01:07.466Z,7.60
2023-05-14T04:03:34.144Z,7.60
2023-05-14T04:06:01.537Z,7.50
2023-05-14T04:08:28.050Z,7.50
2023-05-14T04:10:54.588Z,7.60
2023-05-14T04:13:21.061Z,7.60
2023-05-14T04:15:47.658Z,7.60
2023-05-14T04:18:14.222Z,7.60
2023-05-14T04:20:41.004Z,7.60
2023-05-14T04:23:07.526Z,7.60
2023-05-14T04:25:34.074Z,7.60
2023-05-14T04:28:00.673Z,7.60
2023-05-14T04:30:27.318Z,7.60
2023-05-14T04:32:53.869Z,7.70
2023-05-14T04:35:22.751Z,7.70
2023-05-14T04:37:51.256Z,7.80
2023-05-14T04:40:17.990Z,7.80
2023-05-14T04:42:44.797Z,7.80
2023-05-14T04:45:13.478Z,7.90
2023-05-14T04:47:39.989Z,7.90
2023-05-14T04:50:06.956Z,7.90
2023-05-14T04:52:33.453Z,7.90
2023-05-14T04:54:59.918Z,7.90
2023-05-14T04:57:26.600Z,7.90
2023-05-14T04:59:53.130Z,8.00
2023-05-14T05:02:19.637Z,8.00
2023-05-14T05:04:47.152Z,8.10
2023-05-14T05:07:14.425Z,8.10
2023-05-14T05:09:42.680Z,8.10
2023-05-14T05:12:09.280Z,8.20
2023-05-14T05:14:35.808Z,8.20
2023-05-14T05:17:02.282Z,8.20
2023-05-14T05:19:39.601Z,8.20
2023-05-14T05:22:10.287Z,8.30
2023-05-14T05:24:36.979Z,8.30
2023-05-14T05:27:03.711Z,8.40
2023-05-14T05:29:30.261Z,8.40
2023-05-14T05:31:56.808Z,8.40
2023-05-14T05:34:23.571Z,8.40
2023-05-14T05:36:50.189Z,8.40
2023-05-14T05:39:16.794Z,8.50
2023-05-14T05:41:44.227Z,8.50
2023-05-14T05:44:10.864Z,8.60
2023-05-14T05:46:37.731Z,8.70
2023-05-14T05:49:04.361Z,8.60
2023-05-14T05:51:31.376Z,8.70
2023-05-14T05:53:57.848Z,8.80
2023-05-14T05:56:24.369Z,8.90
2023-05-14T05:58:50.888Z,8.90
2023-05-14T06:01:17.421Z,9.00
2023-05-14T06:03:45.308Z,9.10
2023-05-14T06:06:13.484Z,9.10
2023-05-14T06:08:40.011Z,9.20
2023-05-14T06:11:06.645Z,9.30
2023-05-14T06:13:33.346Z,9.40
2023-05-14T06:15:59.820Z,9.50
2023-05-14T06:18:26.471Z,9.60
2023-05-14T06:20:52.974Z,9.80
2023-05-14T06:23:19.493Z,9.90
2023-05-14T06:25:45.969Z,9.90
2023-05-14T06:28:12.479Z,10.10
2023-05-14T06:30:38.973Z,10.20
2023-05-14T06:33:05.560Z,10.20
2023-05-14T06:35:32.346Z,10.30
2023-05-14T06:37:58.865Z,10.40
2023-05-14T06:40:28.025Z,10.50
2023-05-14T06:42:54.616Z,10.70
2023-05-14T06:45:21.117Z,10.80
2023-05-14T06:47:47.678Z,10.90
2023-05-14T06:50:14.201Z,11.00
2023-05-14T06:52:40.876Z,11.10
2023-05-14T06:55:07.598Z,11.20
2023-05-14T06:57:34.573Z,11.30
2023-05-14T07:00:03.255Z,11.40
2023-05-14T07:02:30.422Z,11.60
2023-05-14T07:04:57.045Z,11.70
2023-05-14T07:07:23.599Z,11.80
2023-05-14T07:09:50.970Z,11.90
2023-05-14T07:12:17.498Z,11.90
2023-05-14T07:14:44.114Z,12.00
2023-05-14T07:17:11.106Z,12.00
2023-05-14T07:19:37.666Z,11.90
2023-05-14T07:22:04.358Z,12.10
2023-05-14T07:24:30.883Z,12.20
2023-05-14T07:26:57.509Z,12.40
2023-05-14T07:29:25.510Z,12.50
2023-05-14T07:31:52.112Z,12.70
2023-05-14T07:34:21.804Z,12.90
2023-05-14T07:36:48.318Z,12.90
2023-05-14T07:39:14.892Z,13.00
2023-05-14T07:41:41.354Z,13.20
2023-05-14T07:44:07.879Z,13.40
2023-05-14T07:46:34.368Z,13.40
2023-05-14T07:49:00.898Z,13.60
2023-05-14T07:51:28.415Z,13.70
2023-05-14T07:53:58.290Z,13.80
2023-05-14T07:56:25.082Z,13.80
2023-05-14T07:58:51.791Z,13.90
2023-05-14T08:01:18.577Z,14.10
2023-05-14T08:03:45.928Z,14.10
2023-05-14T08:06:12.769Z,14.30
2023-05-14T08:08:39.778Z,14.50
2023-05-14T08:11:06.575Z,14.60
2023-05-14T08:13:33.468Z,14.70
2023-05-14T08:16:00.462Z,14.90
2023-05-14T08:18:27.303Z,15.00
2023-05-14T08:20:54.146Z,14.90
2023-05-14T08:23:20.913Z,15.10
2023-05-14T08:25:47.900Z,15.20
2023-05-14T08:28:14.641Z,15.60
2023-05-14T08:30:43.232Z,15.80
2023-05-14T08:33:10.018Z,16.10
2023-05-14T08:35:36.792Z,16.20
2023-05-14T08:38:03.689Z,16.40
2023-05-14T08:40:30.690Z,16.60
2023-05-14T08:42:58.255Z,16.50
2023-05-14T08:45:29.086Z,16.60
2023-05-14T08:47:59.050Z,16.50
2023-05-14T08:50:27.308Z,16.80
2023-05-14T08:52:54.590Z,17.10
2023-05-14T08:55:21.387Z,16.90
2023-05-14T08:57:49.309Z,17.10
2023-05-14T09:00:16.215Z,17.30
2023-05-14T09:02:44.582Z,17.20
2023-05-14T09:05:11.419Z,17.70
2023-05-14T09:07:38.540Z,18.00
2023-05-14T09:10:05.531Z,18.30
2023-05-14T09:12:32.309Z,18.30
2023-05-14T09:14:59.163Z,18.40
2023-05-14T09:17:26.872Z,18.30
2023-05-14T09:19:53.767Z,18.80
2023-05-14T09:22:20.560Z,18.90
2023-05-14T09:25:01.606Z,19.50
2023-05-14T09:27:29.877Z,20.20
2023-05-14T09:29:56.668Z,21.60
2023-05-14T09:32:23.519Z,23.10
2023-05-14T09:34:50.337Z,24.60
2023-05-14T09:37:17.252Z,24.10
2023-05-14T09:39:47.060Z,23.50
2023-05-14T09:42:13.826Z,23.90
2023-05-14T09:44:40.633Z,25.70
2023-05-14T09:47:07.410Z,25.90
2023-05-14T09:49:34.235Z,25.00
2023-05-14T09:52:01.122Z,24.40
2023-05-14T09:54:28.306Z,23.60
2023-05-14T09:56:55.908Z,24.90
2023-05-14T09:59:22.838Z,25.50
2023-05-14T10:01:49.968Z,26.10
2023-05-14T10:04:17.231Z,26.70
2023-05-14T10:06:47.971Z,27.00
2023-05-14T10:09:19.302Z,27.80
2023-05-14T10:11:50.181Z,28.30
2023-05-14T10:14:20.712Z,27.20
2023-05-14T10:16:51.555Z,26.70
2023-05-14T10:19:20.074Z,26.80
2023-05-14T10:21:53.487Z,26.70
2023-05-14T10:24:23.168Z,27.70
2023-05-14T10:26:50.084Z,28.20
2023-05-14T10:29:16.882Z,28.20
2023-05-14T10:31:47.827Z,27.60
2023-05-14T10:34:50.899Z,27.50
2023-05-14T10:37:18.874Z,28.50
2023-05-14T10:39:46.928Z,27.60
2023-05-14T10:42:18.006Z,27.90
2023-05-14T10:45:10.811Z,29.10
2023-05-14T10:47:42.907Z,28.60
2023-05-14T10:50:13.157Z,25.50
2023-05-14T10:52:46.260Z,25.90
2023-05-14T10:55:13.975Z,26.20
2023-05-14T10:57:42.555Z,27.70
2023-05-14T11:00:10.742Z,29.40
2023-05-14T11:02:38.723Z,30.10
2023-05-14T11:05:08.222Z,29.90
2023-05-14T11:07:38.838Z,27.90
2023-05-14T11:10:06.724Z,28.70
2023-05-14T11:12:34.312Z,29.70
2023-05-14T11:15:02.176Z,28.90
2023-05-14T11:17:29.619Z,29.00
2023-05-14T11:19:56.646Z,28.40
2023-05-14T11:22:23.893Z,27.10
2023-05-14T11:24:51.078Z,24.00
2023-05-14T11:27:18.071Z,23.80
2023-05-14T11:29:48.548Z,23.90
2023-05-14T11:32:16.279Z,23.30
2023-05-14T11:34:44.919Z,22.80
2023-05-14T11:37:15.393Z,22.90
2023-05-14T11:39:52.649Z,22.40
2023-05-14T11:42:19.868Z,21.70
2023-05-14T11:44:51.816Z,22.10
2023-05-14T11:47:19.389Z,21.10
2023-05-14T11:49:46.298Z,20.50
2023-05-14T11:52:16.774Z,20.30
2023-05-14T11:54:44.073Z,20.80
2023-05-14T11:57:15.091Z,20.90
2023-05-14T11:59:42.164Z,20.20
2023-05-14T12:02:10.604Z,20.40
2023-05-14T12:04:41.833Z,21.10
2023-05-14T12:07:12.737Z,21.30
2023-05-14T12:09:45.153Z,22.20
2023-05-14T12:12:12.458Z,23.30
2023-05-14T12:14:41.735Z,23.70
2023-05-14T12:17:12.420Z,24.60
2023-05-14T12:19:42.836Z,24.80
2023-05-14T12:22:10.523Z,23.80
2023-05-14T12:24:37.605Z,24.10
2023-05-14T12:27:04.446Z,23.80
2023-05-14T12:29:31.357Z,24.50
2023-05-14T12:31:59.363Z,23.60
2023-05-14T12:34:26.299Z,23.60
2023-05-14T12:36:53.244Z,23.20
2023-05-14T12:39:20.135Z,23.10
2023-05-14T12:41:47.048Z,23.10
2023-05-14T12:44:13.875Z,23.10
2023-05-14T12:46:43.580Z,23.20
2023-05-14T12:49:11.294Z,22.70
2023-05-14T12:51:38.286Z,23.40
2023-05-14T12:54:04.980Z,23.00
2023-05-14T12:56:32.105Z,21.90
2023-05-14T12:58:58.797Z,22.00
2023-05-14T13:01:25.540Z,22.10
2023-05-14T13:03:52.419Z,22.60
2023-05-14T13:06:19.281Z,21.90
2023-05-14T13:08:46.218Z,22.30
2023-05-14T13:11:13.392Z,22.00
2023-05-14T13:13:40.163Z,22.70
2023-05-14T13:16:07.173Z,24.00
2023-05-14T13:18:34.372Z,25.20
2023-05-14T13:21:06.415Z,26.30
2023-05-14T13:23:33.738Z,26.60
2023-05-14T13:26:00.513Z,27.10
2023-05-14T13:28:27.300Z,25.70
2023-05-14T13:31:04.764Z,26.60
2023-05-14T13:33:31.493Z,27.40
2023-05-14T13:35:58.265Z,27.40
2023-05-14T13:38:25.160Z,27.00
2023-05-14T13:40:51.860Z,26.10
2023-05-14T13:43:18.679Z,24.80
2023-05-14T13:45:45.793Z,25.00
2023-05-14T13:48:12.594Z,24.80
2023-05-14T13:50:39.527Z,24.70
2023-05-14T13:53:06.343Z,24.10
2023-05-14T13:55:35.892Z,23.50
2023-05-14T13:58:02.751Z,23.50
2023-05-14T14:00:29.671Z,22.90
2023-05-14T14:02:56.636Z,22.50
2023-05-14T14:05:27.078Z,22.20
2023-05-14T14:08:00.957Z,22.20
2023-05-14T14:10:35.538Z,22.40
2023-05-14T14:13:02.365Z,22.00
2023-05-14T14:15:29.227Z,22.50
2023-05-14T14:17:56.145Z,22.80
2023-05-14T14:20:23.019Z,23.50
2023-05-14T14:22:50.081Z,24.00
2023-05-14T14:25:16.838Z,23.70
2023-05-14T14:27:43.532Z,23.90
2023-05-14T14:30:16.871Z,23.90
2023-05-14T14:32:46.137Z,23.90
2023-05-14T14:35:14.044Z,24.30
2023-05-14T14:37:42.008Z,24.40
2023-05-14T14:40:12.175Z,26.60
2023-05-14T14:42:41.201Z,27.80
2023-05-14T14:45:08.707Z,29.30
2023-05-14T14:47:35.920Z,28.00
2023-05-14T14:50:03.037Z,27.30
2023-05-14T14:52:30.078Z,26.50
2023-05-14T14:54:57.011Z,25.40
2023-05-14T14:57:23.790Z,24.40
2023-05-14T14:59:50.678Z,23.80
2023-05-14T15:02:17.539Z,24.80
2023-05-14T15:04:44.483Z,25.80
2023-05-14T15:07:11.265Z,26.90
2023-05-14T15:09:38.031Z,27.90
2023-05-14T15:12:04.965Z,27.40
2023-05-14T15:14:34.025Z,26.60
2023-05-14T15:17:03.081Z,26.50
2023-05-14T15:19:30.792Z,25.20
2023-05-14T15:21:57.603Z,25.00
2023-05-14T15:24:26.159Z,25.20
2023-05-14T15:26:53.668Z,25.30
2023-05-14T15:29:23.605Z,24.20
2023-05-14T15:31:50.557Z,23.30
2023-05-14T15:34:17.371Z,23.50
2023-05-14T15:36:44.110Z,23.20
2023-05-14T15:39:10.860Z,24.00
2023-05-14T15:41:37.928Z,26.20
2023-05-14T15:44:04.766Z,28.30
2023-05-14T15:46:32.223Z,30.00
2023-05-14T15:48:59.151Z,30.50
2023-05-14T15:51:25.990Z,31.60
2023-05-14T15:53:53.651Z,32.00
2023-05-14T15:56:22.787Z,30.60
2023-05-14T15:58:49.784Z,28.10
2023-05-14T16:01:16.777Z,27.50
2023-05-14T16:03:43.812Z,26.40
2023-05-14T16:06:11.584Z,25.00
2023-05-14T16:08:38.556Z,24.00
2023-05-14T16:11:06.244Z,22.90
2023-05-14T16:13:37.370Z,22.40
2023-05-14T16:16:06.436Z,22.10
2023-05-14T16:18:33.465Z,22.10
2023-05-14T16:21:00.876Z,21.90
2023-05-14T16:23:29.681Z,21.90
2023-05-14T16:25:56.422Z,21.90
2023-05-14T16:28:23.234Z,21.80
2023-05-14T16:30:49.986Z,21.90
2023-05-14T16:33:16.858Z,22.40
2023-05-14T16:35:50.036Z,22.60
2023-05-14T16:38:17.124Z,23.10
2023-05-14T16:40:43.894Z,23.60
2023-05-14T16:43:10.830Z,23.70
2023-05-14T16:45:37.721Z,23.30
2023-05-14T16:48:04.817Z,23.30
2023-05-14T16:50:31.863Z,23.60
2023-05-14T16:52:58.857Z,23.00
2023-05-14T16:55:26.472Z,22.80
2023-05-14T16:57:53.259Z,22.10
2023-05-14T17:00:20.223Z,21.90
2023-05-14T17:02:52.799Z,21.90
2023-05-14T17:05:20.168Z,21.60
2023-05-14T17:07:46.981Z,21.30
2023-05-14T17:10:13.839Z,21.40
2023-05-14T17:12:40.762Z,21.40
2023-05-14T17:15:09.133Z,21.40
2023-05-14T17:17:37.652Z,21.30
2023-05-14T17:20:05.997Z,21.30
2023-05-14T17:22:32.816Z,21.30
2023-05-14T17:24:59.647Z,21.30
2023-05-14T17:27:26.508Z,21.20
2023-05-14T17:29:53.250Z,21.00
2023-05-14T17:32:20.018Z,21.10
2023-05-14T17:34:49.693Z,21.00
2023-05-14T17:37:16.538Z,21.00
2023-05-14T17:39:43.369Z,21.00
2023-05-14T17:42:10.215Z,20.70
2023-05-14T17:44:37.010Z,20.80
2023-05-14T17:47:04.739Z,20.60
2023-05-14T17:49:31.708Z,20.60
2023-05-14T17:51:58.711Z,20.60
2023-05-14T17:54:28.013Z,20.50
2023-05-14T17:56:54.823Z,20.30
2023-05-14T17:59:22.973Z,20.20
2023-05-14T18:01:50.976Z,20.20
2023-05-14T18:04:17.674Z,20.20
2023-05-14T18:06:44.800Z,20.10
2023-05-14T18:09:11.632Z,20.00
2023-05-14T18:11:38.330Z,20.10
2023-05-14T18:14:05.182Z,20.10
2023-05-14T18:16:32.024Z,20.00
2023-05-14T18:19:00.314Z,20.00
2023-05-14T18:21:27.123Z,19.80
2023-05-14T18:23:54.334Z,19.80
2023-05-14T18:26:22.049Z,19.80
2023-05-14T18:28:51.449Z,19.80
2023-05-14T18:31:18.186Z,19.70
2023-05-14T18:33:44.887Z,19.60
2023-05-14T18:36:11.692Z,19.50
2023-05-14T18:38:38.549Z,19.40
2023-05-14T18:41:05.359Z,19.50
2023-05-14T18:43:32.136Z,19.40
2023-05-14T18:45:59.119Z,19.40
2023-05-14T18:48:26.363Z,19.30
2023-05-14T18:50:56.082Z,19.20
2023-05-14T18:53:22.992Z,19.10
2023-05-14T18:55:49.704Z,19.00
2023-05-14T18:58:17.568Z,19.00
2023-05-14T19:00:44.450Z,18.90
2023-05-14T19:03:11.282Z,18.80
2023-05-14T19:05:38.162Z,18.70
2023-05-14T19:08:05.031Z,18.60
2023-05-14T19:10:31.797Z,18.60
2023-05-14T19:12:58.748Z,18.50
2023-05-14T19:15:25.891Z,18.50
2023-05-14T19:17:53.976Z,18.40
2023-05-14T19:20:20.909Z,18.30
2023-05-14T19:22:47.657Z,18.30
2023-05-14T19:25:14.408Z,18.20
2023-05-14T19:27:41.213Z,18.10
2023-05-14T19:30:08.243Z,18.10
2023-05-14T19:32:37.316Z,18.00
2023-05-14T19:35:05.067Z,18.00
2023-05-14T19:37:31.962Z,17.90
2023-05-14T19:39:58.703Z,17.80
2023-05-14T19:42:25.625Z,17.60
2023-05-14T19:44:52.366Z,17.50
2023-05-14T19:47:19.287Z,17.40
2023-05-14T19:49:48.269Z,17.30
2023-05-14T19:52:15.006Z,17.20
2023-05-14T19:54:41.872Z,17.20
2023-05-14T19:57:09.274Z,17.10
2023-05-14T19:59:38.994Z,17.00
2023-05-14T20:02:09.156Z,17.00
2023-05-14T20:04:40.111Z,17.00
2023-05-14T20:07:08.294Z,16.90
2023-05-14T20:09:35.157Z,16.90
2023-05-14T20:12:01.967Z,16.70
2023-05-14T20:14:28.650Z,16.60
2023-05-14T20:16:58.007Z,16.50
2023-05-14T20:19:24.945Z,16.50
2023-05-14T20:21:52.153Z,16.40
2023-05-14T20:24:21.711Z,16.40
2023-05-14T20:26:48.379Z,16.40
2023-05-14T20:29:15.187Z,16.40
2023-05-14T20:31:41.971Z,16.30
2023-05-14T20:34:11.140Z,16.20
2023-05-14T20:36:37.897Z,16.20
2023-05-14T20:39:06.157Z,16.20
2023-05-14T20:41:32.906Z,16.20
2023-05-14T20:44:01.147Z,16.00
2023-05-14T20:46:28.008Z,16.00
2023-05-14T20:48:55.786Z,15.90
2023-05-14T20:51:22.736Z,15.90
2023-05-14T20:53:49.599Z,15.90
2023-05-14T20:56:16.486Z,15.90
2023-05-14T20:58:43.308Z,15.90
2023-05-14T21:01:10.410Z,15.90
2023-05-14T21:03:37.110Z,15.90
2023-05-14T21:06:04.017Z,15.80
2023-05-14T21:08:32.866Z,15.80
2023-05-14T21:10:59.596Z,15.70
2023-05-14T21:13:26.415Z,15.60
2023-05-14T21:15:53.232Z,15.60
2023-05-14T21:18:20.026Z,15.40
2023-05-14T21:20:46.736Z,15.40
2023-05-14T21:23:15.461Z,15.50
2023-05-14T21:25:42.304Z,15.40
2023-05-14T21:28:09.069Z,15.40
2023-05-14T21:30:35.773Z,15.40
2023-05-14T21:33:03.108Z,15.40
2023-05-14T21:35:29.887Z,15.40
2023-05-14T21:37:56.724Z,15.40
2023-05-14T21:40:23.514Z,15.30
2023-05-14T21:42:50.241Z,15.30
2023-05-14T21:45:16.925Z,15.30
2023-05-14T21:47:46.132Z,15.30
2023-05-14T21:50:13.841Z,15.20
2023-05-14T21:52:41.079Z,15.20
2023-05-14T21:55:08.117Z,15.10
2023-05-14T21:57:34.914Z,15.10
2023-05-14T22:00:01.909Z,15.00
2023-05-14T22:02:28.713Z,15.00
2023-05-14T22:04:55.700Z,14.90
2023-05-14T22:07:22.503Z,15.00
2023-05-14T22:09:50.280Z,14.90
2023-05-14T22:12:16.998Z,14.90
2023-05-14T22:14:43.758Z,14.80
2023-05-14T22:17:12.763Z,14.70
2023-05-14T22:19:39.540Z,14.60
2023-05-14T22:22:06.235Z,14.50
2023-05-14T22:24:32.998Z,14.50
2023-05-14T22:26:59.761Z,14.40
2023-05-14T22:29:27.640Z,14.40
2023-05-14T22:31:54.521Z,14.40
2023-05-14T22:34:21.389Z,14.30
2023-05-14T22:36:56.068Z,14.20
2023-05-14T22:39:22.821Z,14.20
2023-05-14T22:41:54.884Z,14.20
2023-05-14T22:44:22.446Z,14.10
2023-05-14T22:46:49.716Z,14.10
2023-05-14T22:49:16.601Z,14.10
2023-05-14T22:51:45.237Z,14.10
2023-05-14T22:54:12.060Z,14.10
2023-05-14T22:56:38.909Z,14.10
2023-05-14T22:59:05.841Z,14.00
2023-05-14T23:01:32.616Z,14.00
2023-05-14T23:03:59.464Z,13.90
2023-05-14T23:06:26.381Z,13.70
2023-05-14T23:08:53.324Z,13.70
2023-05-14T23:11:20.096Z,13.70
2023-05-14T23:13:46.981Z,13.60
2023-05-14T23:16:13.779Z,13.50
2023-05-14T23:18:40.728Z,13.50
2023-05-14T23:21:07.765Z,13.50
2023-05-14T23:23:35.128Z,13.50
2023-05-14T23:26:01.922Z,13.50
2023-05-14T23:28:28.798Z,13.40
2023-05-14T23:30:55.614Z,13.30
2023-05-14T23:33:22.558Z,13.30
2023-05-14T23:35:49.504Z,13.30
2023-05-14T23:38:16.655Z,13.20
2023-05-14T23:40:43.463Z,13.20
2023-05-14T23:43:10.374Z,13.10
2023-05-14T23:45:37.233Z,13.10
2023-05-14T23:48:04.198Z,13.00
2023-05-14T23:50:31.525Z,12.90
2023-05-14T23:52:58.319Z,12.80
2023-05-14T23:55:25.258Z,12.70
2023-05-14T23:57:54.561Z,12.80
